createdAt,value
2023-04-28T00:01:29.675Z,8.78
2023-04-28T00:06:31.537Z,8.83
2023-04-28T00:11:33.409Z,8.90
2023-04-28T00:16:35.327Z,8.96
2023-04-28T00:21:37.180Z,8.94
2023-04-28T00:26:38.932Z,8.90
2023-04-28T00:31:41.111Z,8.89
2023-04-28T00:36:42.948Z,8.92
2023-04-28T00:41:44.715Z,8.90
2023-04-28T00:46:46.535Z,8.89
2023-04-28T00:51:48.472Z,8.85
2023-04-28T00:56:50.636Z,8.83
2023-04-28T01:01:52.654Z,8.79
2023-04-28T01:06:55.998Z,8.72
2023-04-28T01:11:58.503Z,8.62
2023-04-28T01:17:16.510Z,8.54
2023-04-28T01:22:18.838Z,8.51
2023-04-28T01:27:23.464Z,8.53
2023-04-28T01:32:25.274Z,8.48
2023-04-28T01:37:27.063Z,8.48
2023-04-28T01:42:29.094Z,8.52
2023-04-28T01:47:31.622Z,8.46
2023-04-28T01:52:33.459Z,8.43
2023-04-28T01:57:37.102Z,8.37
2023-04-28T02:02:39.790Z,8.32
2023-04-28T02:07:41.677Z,8.32
2023-04-28T02:12:43.456Z,8.31
2023-04-28T02:17:45.357Z,8.26
2023-04-28T02:22:47.275Z,8.26
2023-04-28T02:27:49.111Z,8.26
2023-04-28T02:32:51.482Z,8.25
2023-04-28T02:37:53.276Z,8.27
2023-04-28T02:42:55.128Z,8.28
2023-04-28T02:47:56.952Z,8.26
2023-04-28T02:52:58.738Z,8.30
2023-04-28T02:58:00.713Z,8.32
2023-04-28T03:03:02.826Z,8.34
2023-04-28T03:08:05.005Z,8.35
2023-04-28T03:13:07.248Z,8.36
2023-04-28T03:18:09.657Z,8.37
2023-04-28T03:23:11.641Z,8.33
2023-04-28T03:28:13.660Z,8.30
2023-04-28T03:33:15.562Z,8.25
2023-04-28T03:38:17.839Z,8.27
2023-04-28T03:43:19.952Z,8.36
2023-04-28T03:48:41.187Z,8.38
2023-04-28T03:53:43.118Z,8.42
2023-04-28T03:58:45.553Z,8.45
2023-04-28T04:03:47.494Z,8.49
2023-04-28T04:08:49.583Z,8.47
2023-04-28T04:13:51.382Z,8.53
2023-04-28T04:18:55.560Z,8.53
2023-04-28T04:24:16.740Z,8.48
2023-04-28T04:29:19.144Z,8.51
2023-04-28T04:34:21.209Z,8.47
2023-04-28T04:39:23.052Z,8.49
2023-04-28T04:44:27.524Z,8.55
2023-04-28T04:49:29.791Z,8.56
2023-04-28T04:54:31.856Z,8.55
2023-04-28T04:59:33.741Z,8.53
2023-04-28T05:04:42.403Z,8.55
2023-04-28T05:09:45.881Z,8.56
2023-04-28T05:14:47.789Z,8.53
2023-04-28T05:19:50.846Z,8.55
2023-04-28T05:24:53.526Z,8.55
2023-04-28T05:29:55.654Z,8.61
2023-04-28T05:34:57.513Z,8.69
2023-04-28T05:39:59.351Z,8.77
2023-04-28T05:45:01.179Z,8.94
2023-04-28T05:50:03.713Z,9.19
2023-04-28T05:55:06.051Z,9.23
2023-04-28T06:00:09.514Z,9.39
2023-04-28T06:05:14.567Z,9.58
2023-04-28T06:10:17.685Z,9.85
2023-04-28T06:15:19.659Z,10.08
2023-04-28T06:20:21.829Z,10.22
2023-04-28T06:25:24.268Z,10.38
2023-04-28T06:30:26.167Z,10.56
2023-04-28T06:35:29.869Z,10.71
2023-04-28T06:40:32.083Z,10.84
2023-04-28T06:45:36.069Z,10.96
2023-04-28T06:50:38.026Z,11.07
2023-04-28T06:55:42.614Z,11.23
2023-04-28T07:00:44.597Z,11.44
2023-04-28T07:05:46.561Z,11.63
2023-04-28T07:10:48.680Z,11.83
2023-04-28T07:15:50.520Z,12.17
2023-04-28T07:20:53.050Z,12.53
2023-04-28T07:25:55.233Z,12.88
2023-04-28T07:30:57.616Z,13.11
2023-04-28T07:35:59.562Z,13.40
2023-04-28T07:41:01.968Z,13.59
2023-04-28T07:46:03.850Z,13.80
2023-04-28T07:51:05.738Z,14.03
2023-04-28T07:56:07.697Z,14.25
2023-04-28T08:01:09.504Z,14.46
2023-04-28T08:06:11.313Z,14.63
2023-04-28T08:11:13.160Z,14.89
2023-04-28T08:16:15.563Z,15.24
2023-04-28T08:21:17.780Z,15.58
2023-04-28T08:26:19.788Z,16.01
2023-04-28T08:31:21.652Z,16.32
2023-04-28T08:36:25.224Z,16.55
2023-04-28T08:41:30.083Z,16.67
2023-04-28T08:46:33.548Z,16.84
2023-04-28T08:51:43.962Z,17.06
2023-04-28T08:56:46.262Z,17.28
2023-04-28T09:01:51.133Z,17.48
2023-04-28T09:06:53.061Z,17.70
2023-04-28T09:12:02.655Z,17.89
2023-04-28T09:17:14.623Z,17.94
2023-04-28T09:22:26.119Z,18.02
2023-04-28T09:27:28.961Z,18.09
2023-04-28T09:32:31.177Z,18.09
2023-04-28T09:37:34.320Z,18.11
2023-04-28T09:43:02.397Z,18.16
2023-04-28T09:54:57.335Z,18.15
2023-04-28T09:59:59.784Z,18.07
2023-04-28T10:05:02.308Z,17.98
2023-04-28T10:10:05.574Z,17.94
2023-04-28T10:15:09.710Z,17.90
2023-04-28T10:20:12.010Z,17.80
2023-04-28T10:25:32.641Z,17.62
2023-04-28T10:30:35.299Z,17.41
2023-04-28T10:35:37.627Z,17.20
2023-04-28T10:40:45.103Z,17.02
2023-04-28T10:45:56.065Z,16.79
2023-04-28T10:51:04.724Z,16.55
2023-04-28T10:56:07.178Z,16.35
2023-04-28T11:01:25.183Z,16.33
2023-04-28T11:06:37.285Z,16.23
2023-04-28T11:11:40.615Z,16.19
2023-04-28T11:16:51.795Z,16.13
2023-04-28T11:21:56.669Z,15.78
2023-04-28T11:26:59.394Z,15.47
2023-04-28T11:32:01.491Z,15.25
2023-04-28T11:37:03.981Z,15.10
2023-04-28T11:42:12.081Z,14.95
2023-04-28T11:47:13.943Z,14.95
2023-04-28T11:52:15.685Z,15.05
2023-04-28T11:57:19.505Z,15.15
2023-04-28T12:02:29.535Z,15.33
2023-04-28T12:07:42.483Z,15.42
2023-04-28T12:12:51.856Z,15.52
2023-04-28T12:17:54.833Z,15.67
2023-04-28T12:22:57.137Z,15.74
2023-04-28T12:28:08.470Z,15.77
2023-04-28T12:33:27.599Z,15.79
2023-04-28T12:38:30.060Z,15.82
2023-04-28T12:43:32.207Z,15.77
2023-04-28T12:48:34.988Z,15.66
2023-04-28T12:53:36.778Z,15.57
2023-04-28T12:58:38.602Z,15.53
2023-04-28T13:03:40.595Z,15.53
2023-04-28T13:08:43.094Z,15.49
2023-04-28T13:13:45.290Z,15.51
2023-04-28T13:18:49.040Z,15.46
2023-04-28T13:23:50.989Z,15.44
2023-04-28T13:28:52.930Z,15.44
2023-04-28T13:33:54.775Z,15.43
2023-04-28T13:38:56.768Z,15.40
2023-04-28T13:43:58.727Z,15.37
2023-04-28T13:49:00.573Z,15.33
2023-04-28T13:54:08.275Z,15.26
2023-04-28T13:59:10.127Z,15.17
2023-04-28T14:04:11.978Z,15.13
2023-04-28T14:09:14.145Z,15.15
2023-04-28T14:14:16.054Z,15.12
2023-04-28T14:19:18.707Z,15.14
2023-04-28T14:24:20.573Z,15.17
2023-04-28T14:29:22.372Z,15.25
2023-04-28T14:34:24.819Z,15.32
2023-04-28T14:39:26.615Z,15.31
2023-04-28T14:44:28.487Z,15.36
2023-04-28T14:49:30.802Z,15.43
2023-04-28T14:54:32.829Z,15.45
2023-04-28T14:59:35.647Z,15.54
2023-04-28T15:04:39.000Z,15.60
2023-04-28T15:09:40.930Z,15.61
2023-04-28T15:14:42.705Z,15.68
2023-04-28T15:19:44.560Z,15.72
2023-04-28T15:24:46.663Z,15.72
2023-04-28T15:29:48.689Z,15.71
2023-04-28T15:34:51.158Z,15.71
2023-04-28T15:39:53.192Z,15.74
2023-04-28T15:44:55.007Z,15.69
2023-04-28T15:50:01.222Z,15.60
2023-04-28T15:55:03.086Z,15.57
2023-04-28T16:00:06.853Z,15.52
2023-04-28T16:05:11.804Z,15.47
2023-04-28T16:10:16.109Z,15.43
2023-04-28T16:15:18.383Z,15.39
2023-04-28T16:20:20.166Z,15.31
2023-04-28T16:25:22.280Z,15.32
2023-04-28T16:30:24.276Z,15.26
2023-04-28T16:35:26.537Z,15.22
2023-04-28T16:40:28.897Z,15.18
2023-04-28T16:45:30.693Z,15.19
2023-04-28T16:50:33.128Z,15.16
2023-04-28T16:55:36.684Z,15.09
2023-04-28T17:00:39.541Z,15.05
2023-04-28T17:05:41.583Z,15.07
2023-04-28T17:10:43.398Z,15.07
2023-04-28T17:15:45.303Z,15.01
2023-04-28T17:20:48.202Z,15.00
2023-04-28T17:25:50.044Z,14.93
2023-04-28T17:30:53.002Z,14.92
2023-04-28T17:35:55.259Z,14.96
2023-04-28T17:40:57.393Z,14.92
2023-04-28T17:45:59.252Z,14.93
2023-04-28T17:51:01.296Z,14.85
2023-04-28T17:56:03.260Z,14.85
2023-04-28T18:01:06.719Z,14.84
2023-04-28T18:06:08.973Z,14.79
2023-04-28T18:11:11.232Z,14.78
2023-04-28T18:16:15.074Z,14.77
2023-04-28T18:21:17.093Z,14.76
2023-04-28T18:26:19.149Z,14.77
2023-04-28T18:31:21.257Z,14.76
2023-04-28T18:36:23.641Z,14.75
2023-04-28T18:41:25.464Z,14.75
2023-04-28T18:46:29.442Z,14.71
2023-04-28T18:51:31.404Z,14.69
2023-04-28T18:56:33.392Z,14.75
2023-04-28T19:01:35.500Z,14.70
2023-04-28T19:06:37.373Z,14.68
2023-04-28T19:11:39.253Z,14.70
2023-04-28T19:16:41.198Z,14.70
2023-04-28T19:21:44.614Z,14.72
2023-04-28T19:26:46.437Z,14.68
2023-04-28T19:31:49.084Z,14.68
2023-04-28T19:36:51.296Z,14.71
2023-04-28T19:41:54.589Z,14.76
2023-04-28T19:46:56.418Z,14.85
2023-04-28T19:51:58.567Z,14.84
2023-04-28T19:57:01.853Z,14.88
2023-04-28T20:02:07.817Z,14.87
2023-04-28T20:07:10.572Z,14.80
2023-04-28T20:12:12.563Z,14.69
2023-04-28T20:17:16.294Z,14.62
2023-04-28T20:22:18.163Z,14.57
2023-04-28T20:27:20.058Z,14.58
2023-04-28T20:32:23.640Z,14.66
2023-04-28T20:37:26.486Z,14.73
2023-04-28T20:42:28.821Z,14.73
2023-04-28T20:47:31.102Z,14.67
2023-04-28T20:52:33.606Z,14.62
2023-04-28T20:57:36.548Z,14.52
2023-04-28T21:02:41.712Z,14.44
2023-04-28T21:07:44.297Z,14.50
2023-04-28T21:12:46.724Z,14.52
2023-04-28T21:17:48.509Z,14.50
2023-04-28T21:22:50.295Z,14.45
2023-04-28T21:27:53.142Z,14.40
2023-04-28T21:32:55.521Z,14.36
2023-04-28T21:37:57.524Z,14.32
2023-04-28T21:42:59.510Z,14.27
2023-04-28T21:48:01.396Z,14.27
2023-04-28T21:53:03.626Z,14.25
2023-04-28T21:58:05.692Z,14.33
2023-04-28T22:03:07.790Z,14.33
2023-04-28T22:08:09.746Z,14.30
2023-04-28T22:13:12.836Z,14.31
2023-04-28T22:18:14.607Z,14.31
2023-04-28T22:23:16.677Z,14.32
2023-04-28T22:28:18.498Z,14.31
2023-04-28T22:33:20.394Z,14.33
2023-04-28T22:38:22.218Z,14.40
2023-04-28T22:43:23.995Z,14.43
2023-04-28T22:48:25.821Z,14.45
2023-04-28T22:53:27.734Z,14.48
2023-04-28T22:58:29.578Z,14.47
2023-04-28T23:03:31.672Z,14.50
2023-04-28T23:08:35.301Z,14.52
2023-04-28T23:13:37.297Z,14.50
2023-04-28T23:18:39.692Z,14.40
2023-04-28T23:23:41.475Z,14.36
2023-04-28T23:28:43.313Z,14.34
2023-04-28T23:33:45.316Z,14.27
2023-04-28T23:38:47.324Z,14.15
2023-04-28T23:43:49.302Z,14.04
2023-04-28T23:48:51.181Z,13.98
2023-04-28T23:53:53.048Z,13.94
2023-04-28T23:58:54.837Z,13.83
